Time;durP1;ratioP1;P1;durP2;ratioP2;P2;SDS_P1;SDS_P2;PMS_P1;PMS_P2;Temp;Humidity;BMP_temperature;BMP_pressure;BME280_temperature;BME280_humidity;BME280_pressure;Samples;Min_cycle;Max_cycle;Signal;HPM_P1;HPM_P2
2023/03/01 00:01:35;;;;;;;16.25;11.10;;;-1.50;99.90;;;;;;474322;250;27496;-75
2023/03/01 00:03:36;;;;;;;15.50;10.35;;;-1.60;99.90;;;;;;474316;250;27533;-75
2023/03/01 00:05:38;;;;;;;12.40;9.13;;;-1.60;99.90;;;;;;474358;250;28049;-76
2023/03/01 00:07:39;;;;;;;15.10;10.30;;;-1.60;99.90;;;;;;484884;245;27937;-76
2023/03/01 00:09:40;;;;;;;13.80;9.90;;;-1.60;99.90;;;;;;466464;253;27621;-75
2023/03/01 00:11:41;;;;;;;13.25;9.88;;;-1.60;99.90;;;;;;484771;245;27364;-75
2023/03/01 00:13:43;;;;;;;14.23;10.18;;;-1.70;99.90;;;;;;474388;250;27496;-75
2023/03/01 00:15:44;;;;;;;14.93;11.05;;;-1.70;99.90;;;;;;466471;253;27922;-76
2023/03/01 00:17:45;;;;;;;15.00;10.27;;;-1.70;99.90;;;;;;474411;250;27495;-75
2023/03/01 00:19:46;;;;;;;14.20;10.07;;;-1.70;99.90;;;;;;474404;250;27993;-76
2023/03/01 00:21:48;;;;;;;13.23;9.75;;;-1.70;99.90;;;;;;474403;251;27943;-76
2023/03/01 00:23:49;;;;;;;13.25;9.80;;;-1.70;99.90;;;;;;484842;245;27462;-76
2023/03/01 00:25:50;;;;;;;16.02;11.73;;;-1.80;99.90;;;;;;474396;250;27619;-76
2023/03/01 00:27:52;;;;;;;11.32;8.70;;;-1.70;99.90;;;;;;466423;255;27526;-75
2023/03/01 00:29:53;;;;;;;13.05;9.38;;;-1.80;99.90;;;;;;474369;250;27536;-75
2023/03/01 00:31:54;;;;;;;12.73;10.27;;;-1.80;99.90;;;;;;484854;245;27433;-76
2023/03/01 00:33:56;;;;;;;14.10;9.65;;;-1.80;99.90;;;;;;484746;245;27885;-76
2023/03/01 00:35:57;;;;;;;18.45;9.88;;;-1.80;99.90;;;;;;474355;250;28000;-75
2023/03/01 00:37:58;;;;;;;13.40;10.52;;;-1.90;99.90;;;;;;484862;245;27466;-75
2023/03/01 00:39:59;;;;;;;15.40;10.88;;;-1.80;99.90;;;;;;466448;255;27548;-74
2023/03/01 00:42:00;;;;;;;14.00;9.68;;;-1.90;99.90;;;;;;474360;250;27492;-76
2023/03/01 00:44:02;;;;;;;15.75;10.82;;;-1.90;99.90;;;;;;474345;250;27534;-75
2023/03/01 00:46:03;;;;;;;16.42;10.52;;;-1.90;99.90;;;;;;466440;255;27542;-74
2023/03/01 00:48:05;;;;;;;15.55;10.88;;;-1.90;99.90;;;;;;474375;250;28016;-76
2023/03/01 00:50:05;;;;;;;15.77;11.15;;;-2.00;99.90;;;;;;474347;251;27682;-75
2023/03/01 00:52:07;;;;;;;16.67;11.18;;;-2.00;99.90;;;;;;474368;250;27476;-76
2023/03/01 00:54:08;;;;;;;14.95;11.07;;;-2.00;99.90;;;;;;466410;255;27621;-76
2023/03/01 00:56:09;;;;;;;14.07;10.73;;;-2.00;99.90;;;;;;474393;250;27453;-75
2023/03/01 00:58:10;;;;;;;21.20;12.00;;;-2.00;99.90;;;;;;474373;250;27500;-74
2023/03/01 01:00:12;;;;;;;15.45;11.20;;;-2.00;99.90;;;;;;474366;250;28055;-75
2023/03/01 01:02:13;;;;;;;14.25;11.32;;;-2.00;99.90;;;;;;466436;253;28055;-76
2023/03/01 01:04:14;;;;;;;15.65;10.48;;;-2.10;99.90;;;;;;474357;250;27575;-75
2023/03/01 01:06:15;;;;;;;16.95;11.80;;;-2.00;99.90;;;;;;474333;251;27534;-75
2023/03/01 01:08:17;;;;;;;18.05;11.10;;;-2.10;99.90;;;;;;466437;255;27495;-75
2023/03/01 01:10:18;;;;;;;20.85;11.82;;;-2.10;99.90;;;;;;474293;251;27580;-76
2023/03/01 01:12:19;;;;;;;19.37;12.05;;;-2.10;99.90;;;;;;474372;250;27948;-75
2023/03/01 01:14:21;;;;;;;17.58;11.43;;;-2.10;99.90;;;;;;474266;250;29268;-75
2023/03/01 01:16:22;;;;;;;18.05;11.40;;;-2.10;99.90;;;;;;466434;255;27637;-75
2023/03/01 01:18:23;;;;;;;17.23;11.65;;;-2.10;99.90;;;;;;474370;251;27586;-76
2023/03/01 01:20:24;;;;;;;22.60;13.35;;;-2.00;99.90;;;;;;474154;251;27622;-75
2023/03/01 01:22:26;;;;;;;17.62;12.73;;;-2.00;99.90;;;;;;474355;250;27480;-76
2023/03/01 01:24:27;;;;;;;17.30;13.00;;;-2.10;99.90;;;;;;466412;253;28107;-75
2023/03/01 01:26:28;;;;;;;19.58;13.07;;;-2.10;99.90;;;;;;474373;250;29239;-77
2023/03/01 01:28:29;;;;;;;18.40;12.57;;;-2.10;99.90;;;;;;474379;250;27496;-75
2023/03/01 01:30:31;;;;;;;19.25;12.50;;;-2.10;99.90;;;;;;466516;253;27548;-75
2023/03/01 01:32:32;;;;;;;21.80;12.85;;;-2.10;99.90;;;;;;473879;251;27495;-75
2023/03/01 01:34:33;;;;;;;17.77;13.10;;;-2.10;99.90;;;;;;474379;250;27615;-75
2023/03/01 01:36:34;;;;;;;17.17;12.27;;;-2.10;99.90;;;;;;474366;250;27638;-77
2023/03/01 01:38:36;;;;;;;19.73;12.82;;;-2.10;99.90;;;;;;466463;255;28036;-75
2023/03/01 01:40:37;;;;;;;16.98;11.35;;;-2.10;99.90;;;;;;474399;250;27618;-75
2023/03/01 01:42:38;;;;;;;22.33;12.80;;;-2.10;99.90;;;;;;474004;251;27500;-74
2023/03/01 01:44:39;;;;;;;22.83;13.25;;;-2.10;99.90;;;;;;474395;250;27480;-75
2023/03/01 01:46:41;;;;;;;17.05;12.27;;;-2.20;99.90;;;;;;465855;255;27433;-75
2023/03/01 01:48:42;;;;;;;20.00;12.75;;;-2.10;99.90;;;;;;474346;250;27511;-76
2023/03/01 01:50:44;;;;;;;23.83;13.75;;;-2.10;99.90;;;;;;466416;255;28003;-76
2023/03/01 01:52:46;;;;;;;16.65;12.48;;;-2.10;99.90;;;;;;474280;251;27878;-75
2023/03/01 01:54:46;;;;;;;22.60;12.80;;;-2.10;99.90;;;;;;474113;251;27500;-77
2023/03/01 01:56:47;;;;;;;20.75;13.57;;;-2.20;99.90;;;;;;474354;250;27555;-75
2023/03/01 01:58:48;;;;;;;20.10;13.23;;;-2.20;99.90;;;;;;466000;255;27621;-76
2023/03/01 02:00:49;;;;;;;19.67;13.35;;;-2.20;99.90;;;;;;474347;250;27541;-76
2023/03/01 02:02:51;;;;;;;20.30;13.27;;;-2.20;99.90;;;;;;465947;255;28862;-75
2023/03/01 02:04:52;;;;;;;21.75;14.30;;;-2.20;99.90;;;;;;474366;250;28036;-76
2023/03/01 02:06:53;;;;;;;20.08;12.15;;;-2.20;99.90;;;;;;466448;255;27673;-75
2023/03/01 02:08:54;;;;;;;20.60;12.73;;;-2.20;99.90;;;;;;474366;250;27546;-75
2023/03/01 02:10:56;;;;;;;18.92;12.70;;;-2.20;99.90;;;;;;474095;251;27621;-76
2023/03/01 02:12:57;;;;;;;19.40;12.57;;;-2.20;99.90;;;;;;474355;250;27497;-75
2023/03/01 02:14:58;;;;;;;16.10;11.52;;;-2.20;99.90;;;;;;484853;245;27450;-75
2023/03/01 02:17:00;;;;;;;18.45;12.40;;;-2.20;99.90;;;;;;466447;255;28000;-76
2023/03/01 02:19:01;;;;;;;13.93;10.73;;;-2.20;99.90;;;;;;474385;250;27569;-77
2023/03/01 02:21:02;;;;;;;17.60;12.02;;;-2.20;99.90;;;;;;474117;251;27535;-75
2023/03/01 02:23:03;;;;;;;18.37;13.07;;;-2.20;99.90;;;;;;474417;250;27586;-75
2023/03/01 02:25:05;;;;;;;16.50;11.70;;;-2.30;99.90;;;;;;466061;255;27349;-75
2023/03/01 02:27:06;;;;;;;17.00;11.88;;;-2.30;99.90;;;;;;474388;250;27580;-76
2023/03/01 02:29:07;;;;;;;17.25;12.23;;;-2.30;99.90;;;;;;466433;255;28021;-75
2023/03/01 02:33:28;;;;;;;18.25;11.95;;;-2.40;99.90;;;;;;474394;250;27543;-77
2023/03/01 02:35:29;;;;;;;16.45;11.18;;;-2.40;99.90;;;;;;465994;255;27576;-75
2023/03/01 02:37:31;;;;;;;16.87;11.88;;;-2.40;99.90;;;;;;474375;250;27555;-75
2023/03/01 02:39:32;;;;;;;17.60;12.80;;;-2.40;99.90;;;;;;466451;253;27560;-75
2023/03/01 02:41:33;;;;;;;19.73;12.13;;;-2.40;99.90;;;;;;474403;250;27995;-75
2023/03/01 02:43:34;;;;;;;14.98;12.15;;;-2.40;99.90;;;;;;474370;250;29088;-76
2023/03/01 02:45:36;;;;;;;14.23;10.73;;;-2.50;99.90;;;;;;474367;250;27517;-75
2023/03/01 02:47:37;;;;;;;18.75;11.75;;;-2.50;99.90;;;;;;484846;245;27470;-76
2023/03/01 02:49:38;;;;;;;17.60;12.05;;;-2.50;99.90;;;;;;466437;255;27641;-75
2023/03/01 02:51:39;;;;;;;18.58;11.85;;;-2.50;99.90;;;;;;474387;250;27577;-75
2023/03/01 02:53:41;;;;;;;16.55;11.85;;;-2.60;99.90;;;;;;474375;250;28106;-76
2023/03/01 02:55:42;;;;;;;16.02;12.23;;;-2.60;99.90;;;;;;474399;250;27951;-76
2023/03/01 02:57:43;;;;;;;17.58;11.25;;;-2.60;99.90;;;;;;465934;255;27600;-76
2023/03/01 02:59:44;;;;;;;13.82;10.52;;;-2.60;99.90;;;;;;474404;250;27637;-76
2023/03/01 03:01:46;;;;;;;15.82;11.30;;;-2.60;99.90;;;;;;466022;255;27565;-74
2023/03/01 03:03:47;;;;;;;20.65;12.88;;;-2.60;99.90;;;;;;474363;250;27543;-76
2023/03/01 03:05:48;;;;;;;18.27;10.57;;;-2.60;99.90;;;;;;466469;253;28535;-76
2023/03/01 03:07:49;;;;;;;15.38;11.60;;;-2.70;99.90;;;;;;474377;250;29064;-76
2023/03/01 03:09:51;;;;;;;19.15;13.55;;;-2.60;99.90;;;;;;474365;250;27630;-75
2023/03/01 03:11:52;;;;;;;21.50;13.98;;;-2.70;99.90;;;;;;474389;250;27481;-76
2023/03/01 03:13:53;;;;;;;18.33;13.13;;;-2.70;99.90;;;;;;466430;255;27677;-75
2023/03/01 03:15:55;;;;;;;22.80;14.27;;;-2.80;99.90;;;;;;474379;250;27520;-75
2023/03/01 03:17:56;;;;;;;22.10;14.55;;;-2.80;99.90;;;;;;474377;250;27591;-76
2023/03/01 03:19:57;;;;;;;25.55;16.45;;;-2.80;99.90;;;;;;474381;250;28013;-76
2023/03/01 03:21:59;;;;;;;22.62;14.85;;;-2.70;99.90;;;;;;466019;255;27507;-76
2023/03/01 03:24:00;;;;;;;21.37;14.45;;;-2.80;99.90;;;;;;474370;251;27514;-75
2023/03/01 03:26:01;;;;;;;21.83;13.75;;;-2.80;99.90;;;;;;466429;255;27531;-76
2023/03/01 03:28:02;;;;;;;18.42;13.95;;;-2.70;99.90;;;;;;474391;251;27484;-76
2023/03/01 03:30:03;;;;;;;19.55;13.48;;;-2.70;99.90;;;;;;473914;251;27426;-75
2023/03/01 03:32:05;;;;;;;16.70;11.50;;;-2.70;99.90;;;;;;474409;250;28006;-76
2023/03/01 03:34:06;;;;;;;18.17;13.50;;;-2.60;99.90;;;;;;466428;255;29137;-75
2023/03/01 03:36:12;;;;;;;18.20;12.68;;;-2.60;99.90;;;;;;474405;250;27503;-76
2023/03/01 03:38:15;;;;;;;18.25;13.93;;;-2.60;99.90;;;;;;473996;251;27485;-76
2023/03/01 03:40:15;;;;;;;21.55;13.90;;;-2.60;99.90;;;;;;474110;251;27628;-76
2023/03/01 03:42:11;;;;;;;25.48;15.50;;;-2.60;99.90;;;;;;484511;245;27476;-77
2023/03/01 03:44:12;;;;;;;23.92;15.45;;;-2.70;99.90;;;;;;484850;245;27991;-76
2023/03/01 03:46:13;;;;;;;22.55;13.32;;;-2.70;99.90;;;;;;466459;253;29130;-75
2023/03/01 03:48:15;;;;;;;24.08;15.13;;;-2.80;99.90;;;;;;474361;250;27490;-76
2023/03/01 03:50:16;;;;;;;21.33;13.27;;;-2.80;99.90;;;;;;474384;250;27606;-76
2023/03/01 03:52:17;;;;;;;23.02;13.30;;;-2.70;99.90;;;;;;466458;253;27522;-76
2023/03/01 03:54:18;;;;;;;23.40;14.10;;;-2.70;99.90;;;;;;474345;250;27423;-76
2023/03/01 03:56:20;;;;;;;18.25;12.70;;;-2.60;99.90;;;;;;474343;250;27646;-75
2023/03/01 03:58:21;;;;;;;22.40;14.70;;;-2.70;99.90;;;;;;474365;250;27956;-76
2023/03/01 04:00:23;;;;;;;21.73;14.52;;;-2.70;99.90;;;;;;484874;245;27506;-76
2023/03/01 04:02:23;;;;;;;25.02;14.52;;;-2.70;99.90;;;;;;474347;251;27494;-76
2023/03/01 04:04:25;;;;;;;24.83;15.18;;;-2.70;99.90;;;;;;466017;255;27543;-75
2023/03/01 04:06:26;;;;;;;23.83;14.73;;;-2.80;99.90;;;;;;474413;250;27417;-75
2023/03/01 04:08:27;;;;;;;24.50;15.20;;;-2.90;99.90;;;;;;466043;255;27576;-76
2023/03/01 04:10:29;;;;;;;23.87;14.40;;;-2.90;99.90;;;;;;474401;250;27962;-76
2023/03/01 04:12:30;;;;;;;22.00;15.60;;;-2.90;99.90;;;;;;466009;255;28980;-75
2023/03/01 04:14:31;;;;;;;22.23;15.23;;;-2.90;99.90;;;;;;474362;250;27539;-76
2023/03/01 04:16:32;;;;;;;26.48;15.80;;;-2.90;99.90;;;;;;484874;245;27383;-76
2023/03/01 04:18:34;;;;;;;26.30;15.95;;;-2.90;99.90;;;;;;466401;255;27616;-76
2023/03/01 04:20:35;;;;;;;21.70;14.48;;;-2.90;99.90;;;;;;474361;250;27295;-75
2023/03/01 04:22:36;;;;;;;27.62;15.95;;;-3.00;99.90;;;;;;474349;250;27798;-76
2023/03/01 04:24:37;;;;;;;26.10;15.93;;;-2.90;99.90;;;;;;474361;250;27913;-76
2023/03/01 04:26:39;;;;;;;27.77;16.25;;;-2.90;99.90;;;;;;466437;255;27509;-77
2023/03/01 04:28:42;;;;;;;28.48;16.15;;;-2.90;99.90;;;;;;474388;250;27161;-76
2023/03/01 04:30:41;;;;;;;26.17;16.62;;;-3.00;99.90;;;;;;474206;251;27639;-75
2023/03/01 04:32:42;;;;;;;27.52;15.43;;;-2.90;99.90;;;;;;474358;250;27502;-75
2023/03/01 04:34:44;;;;;;;21.83;13.30;;;-2.90;99.90;;;;;;466421;255;28082;-76
2023/03/01 04:36:45;;;;;;;22.33;13.65;;;-2.90;99.90;;;;;;474375;251;29064;-76
2023/03/01 04:38:49;;;;;;;24.95;15.27;;;-2.80;99.90;;;;;;473614;251;27398;-76
2023/03/01 04:40:47;;;;;;;24.55;16.00;;;-2.80;99.90;;;;;;465612;255;27542;-75
2023/03/01 04:42:49;;;;;;;21.10;14.10;;;-2.80;99.90;;;;;;474379;250;27260;-75
2023/03/01 04:44:51;;;;;;;26.73;15.43;;;-2.90;99.90;;;;;;466025;255;27443;-76
2023/03/01 04:46:51;;;;;;;22.20;14.25;;;-2.90;99.90;;;;;;474354;250;27484;-74
2023/03/01 04:48:52;;;;;;;23.02;14.57;;;-2.90;99.90;;;;;;466465;253;27752;-75
2023/03/01 04:50:54;;;;;;;19.92;13.62;;;-2.90;99.90;;;;;;474401;250;27600;-76
2023/03/01 04:52:58;;;;;;;22.40;14.35;;;-2.80;99.90;;;;;;474400;250;27554;-76
2023/03/01 04:54:56;;;;;;;23.40;14.27;;;-2.90;99.90;;;;;;474253;251;27307;-75
2023/03/01 04:56:57;;;;;;;24.90;14.98;;;-2.90;99.90;;;;;;466027;255;27194;-75
2023/03/01 04:59:00;;;;;;;32.30;16.02;;;-2.90;99.90;;;;;;474389;250;27499;-75
2023/03/01 05:01:00;;;;;;;26.52;16.23;;;-2.90;99.90;;;;;;484819;245;27796;-77
2023/03/01 05:03:01;;;;;;;28.12;16.67;;;-2.90;99.90;;;;;;466011;255;28099;-76
2023/03/01 05:05:03;;;;;;;25.92;16.00;;;-3.00;99.90;;;;;;474348;250;27425;-75
2023/03/01 05:07:04;;;;;;;24.87;16.67;;;-3.00;99.90;;;;;;466418;255;27534;-76
2023/03/01 05:09:05;;;;;;;27.55;17.15;;;-3.00;99.90;;;;;;474383;250;27370;-75
2023/03/01 05:11:08;;;;;;;30.40;17.08;;;-2.90;99.90;;;;;;474376;250;27539;-77
2023/03/01 05:13:08;;;;;;;28.70;18.23;;;-3.00;99.90;;;;;;474304;250;27856;-77
2023/03/01 05:15:09;;;;;;;29.33;16.50;;;-3.00;99.90;;;;;;466415;255;28096;-76
2023/03/01 05:17:10;;;;;;;30.37;18.10;;;-3.00;99.90;;;;;;474354;250;27532;-75
2023/03/01 05:19:15;;;;;;;25.33;17.02;;;-3.00;99.90;;;;;;474373;250;27364;-76
2023/03/01 05:21:13;;;;;;;26.12;17.23;;;-3.00;99.90;;;;;;484608;245;27344;-76
2023/03/01 05:23:14;;;;;;;32.13;18.25;;;-3.00;99.90;;;;;;484774;245;27439;-75
2023/03/01 05:25:15;;;;;;;30.00;16.73;;;-3.00;99.90;;;;;;484844;245;27414;-76
2023/03/01 05:27:16;;;;;;;33.75;17.80;;;-3.00;99.90;;;;;;466435;255;28049;-76
2023/03/01 05:29:18;;;;;;;28.70;18.12;;;-3.00;99.90;;;;;;474373;250;27275;-75
2023/03/01 05:31:19;;;;;;;29.92;19.08;;;-3.00;99.90;;;;;;474320;250;27539;-77
2023/03/01 05:33:21;;;;;;;28.58;17.33;;;-3.00;99.90;;;;;;474320;250;27560;-76
2023/03/01 05:35:21;;;;;;;24.12;17.20;;;-3.00;99.90;;;;;;484745;245;27157;-76
2023/03/01 05:37:23;;;;;;;35.08;19.02;;;-3.00;99.90;;;;;;466432;254;27384;-75
2023/03/01 05:39:24;;;;;;;29.42;17.87;;;-3.00;99.90;;;;;;474356;250;27817;-76
2023/03/01 05:41:25;;;;;;;29.00;17.45;;;-3.00;99.90;;;;;;474355;251;27777;-75
2023/03/01 05:43:26;;;;;;;31.62;18.55;;;-2.90;99.90;;;;;;474359;250;27519;-76
2023/03/01 05:45:28;;;;;;;29.58;17.75;;;-3.00;99.90;;;;;;466420;255;27466;-76
2023/03/01 05:47:31;;;;;;;26.05;16.70;;;-2.90;99.90;;;;;;474373;250;27881;-76
2023/03/01 05:49:30;;;;;;;31.50;16.20;;;-2.90;99.90;;;;;;474182;251;27508;-77
2023/03/01 05:51:33;;;;;;;27.52;18.35;;;-2.90;99.90;;;;;;474392;250;27927;-76
2023/03/01 05:53:33;;;;;;;27.58;17.85;;;-2.90;99.90;;;;;;484811;245;27921;-75
2023/03/01 05:55:34;;;;;;;26.08;17.60;;;-2.80;99.90;;;;;;484869;245;27242;-76
2023/03/01 05:57:35;;;;;;;38.78;18.80;;;-2.90;99.90;;;;;;466495;253;27632;-76
2023/03/01 05:59:37;;;;;;;30.45;17.58;;;-2.90;99.90;;;;;;474386;250;27620;-75
2023/03/01 06:01:38;;;;;;;29.60;18.58;;;-2.90;99.90;;;;;;474373;250;27642;-76
2023/03/01 06:03:39;;;;;;;30.83;19.15;;;-2.80;99.90;;;;;;474402;250;27806;-76
2023/03/01 06:05:40;;;;;;;30.62;17.58;;;-2.80;99.90;;;;;;466450;255;29050;-76
2023/03/01 06:07:42;;;;;;;28.48;17.95;;;-2.80;99.90;;;;;;474398;250;27525;-76
2023/03/01 06:09:44;;;;;;;27.50;19.20;;;-2.80;99.90;;;;;;474370;250;27509;-75
2023/03/01 06:11:44;;;;;;;26.77;17.58;;;-2.70;99.90;;;;;;484861;245;27418;-76
2023/03/01 06:13:46;;;;;;;29.23;17.35;;;-2.70;99.90;;;;;;474402;250;27503;-74
2023/03/01 06:15:47;;;;;;;28.00;17.70;;;-2.70;99.90;;;;;;466414;255;27600;-76
2023/03/01 06:17:48;;;;;;;28.35;18.70;;;-2.60;99.90;;;;;;474403;251;28038;-76
2023/03/01 06:19:49;;;;;;;30.10;17.42;;;-2.70;99.90;;;;;;474398;250;27492;-74
2023/03/01 06:21:50;;;;;;;31.40;18.83;;;-2.60;99.90;;;;;;474395;250;27517;-75
2023/03/01 06:23:52;;;;;;;32.33;18.35;;;-2.60;99.90;;;;;;466005;255;27514;-76
2023/03/01 06:25:53;;;;;;;32.00;18.73;;;-2.60;99.90;;;;;;474436;250;27358;-77
2023/03/01 06:27:54;;;;;;;32.75;19.00;;;-2.60;99.90;;;;;;466483;255;27614;-76
2023/03/01 06:29:55;;;;;;;31.40;18.65;;;-2.50;99.90;;;;;;474408;250;27850;-75
2023/03/01 06:31:57;;;;;;;28.65;17.75;;;-2.50;99.90;;;;;;474428;250;27997;-76
2023/03/01 06:33:58;;;;;;;28.60;18.75;;;-2.50;99.90;;;;;;474413;250;27512;-75
2023/03/01 06:35:59;;;;;;;32.55;18.60;;;-2.40;99.90;;;;;;466486;255;27510;-76
2023/03/01 06:38:00;;;;;;;37.13;18.75;;;-2.40;99.90;;;;;;474381;250;27606;-75
2023/03/01 06:40:07;;;;;;;33.58;19.77;;;-2.30;99.90;;;;;;474420;250;27487;-74
2023/03/01 06:42:03;;;;;;;34.20;18.90;;;-2.40;99.90;;;;;;474187;251;27965;-75
2023/03/01 06:44:04;;;;;;;30.37;19.48;;;-2.30;99.90;;;;;;484863;245;28072;-75
2023/03/01 06:46:06;;;;;;;29.20;17.65;;;-2.30;99.90;;;;;;466470;255;27515;-75
2023/03/01 06:48:07;;;;;;;34.90;19.02;;;-2.20;99.90;;;;;;474365;250;27531;-76
2023/03/01 06:50:08;;;;;;;32.03;20.00;;;-2.20;99.90;;;;;;474373;250;27473;-75
2023/03/01 06:52:09;;;;;;;29.30;19.10;;;-2.20;99.90;;;;;;474371;250;27598;-75
2023/03/01 06:54:11;;;;;;;27.73;18.40;;;-2.10;99.90;;;;;;466047;255;27562;-75
2023/03/01 06:56:12;;;;;;;28.30;18.40;;;-2.10;99.90;;;;;;474370;250;28033;-75
2023/03/01 06:58:13;;;;;;;26.85;18.60;;;-2.00;99.90;;;;;;466015;255;27637;-76
2023/03/01 07:00:14;;;;;;;31.12;18.10;;;-2.00;99.90;;;;;;474366;250;27492;-75
2023/03/01 07:02:16;;;;;;;29.67;18.15;;;-1.90;99.90;;;;;;466416;255;27554;-76
2023/03/01 07:04:17;;;;;;;32.35;19.60;;;-1.80;99.90;;;;;;474401;250;27628;-75
2023/03/01 07:06:18;;;;;;;29.63;19.95;;;-1.90;99.90;;;;;;474371;250;27511;-75
2023/03/01 07:08:19;;;;;;;28.87;19.20;;;-1.80;99.90;;;;;;474362;250;28031;-76
2023/03/01 07:10:21;;;;;;;33.35;18.60;;;-1.70;99.90;;;;;;466418;255;28813;-76
2023/03/01 07:12:22;;;;;;;26.58;18.25;;;-1.60;99.90;;;;;;474351;250;27503;-76
2023/03/01 07:14:27;;;;;;;30.40;19.05;;;-1.60;99.90;;;;;;474327;250;27536;-76
2023/03/01 07:16:24;;;;;;;26.20;16.25;;;-1.60;99.90;;;;;;484405;245;27392;-76
2023/03/01 07:18:26;;;;;;;29.83;19.30;;;-1.60;99.90;;;;;;484772;245;27600;-76
2023/03/01 07:20:27;;;;;;;30.08;18.10;;;-1.60;99.90;;;;;;466350;255;27997;-75
2023/03/01 07:22:28;;;;;;;31.58;20.12;;;-1.50;99.90;;;;;;474297;250;29133;-75
2023/03/01 07:24:29;;;;;;;29.40;18.33;;;-1.50;99.90;;;;;;474349;250;27525;-75
2023/03/01 07:26:31;;;;;;;30.10;17.60;;;-1.50;99.90;;;;;;474344;250;27560;-75
2023/03/01 07:28:35;;;;;;;29.08;18.70;;;-1.40;99.90;;;;;;466369;255;27582;-75
2023/03/01 07:30:33;;;;;;;33.30;18.65;;;-1.40;99.90;;;;;;474101;250;27508;-75
2023/03/01 07:32:34;;;;;;;30.75;19.15;;;-1.40;99.90;;;;;;474208;251;28102;-75
2023/03/01 07:34:36;;;;;;;29.05;18.05;;;-1.40;99.90;;;;;;474381;250;29089;-76
2023/03/01 07:36:37;;;;;;;31.75;18.70;;;-1.30;99.90;;;;;;466432;255;27650;-74
2023/03/01 07:38:38;;;;;;;29.75;18.05;;;-1.30;99.90;;;;;;474370;250;27528;-75
2023/03/01 07:40:40;;;;;;;30.12;18.95;;;-1.20;99.90;;;;;;474384;250;27602;-76
2023/03/01 07:42:41;;;;;;;29.48;18.05;;;-1.20;99.90;;;;;;474380;249;27613;-75
2023/03/01 07:44:42;;;;;;;30.52;18.77;;;-1.20;99.90;;;;;;466417;255;27587;-77
2023/03/01 07:46:43;;;;;;;30.05;18.23;;;-1.10;99.90;;;;;;474380;250;28035;-74
2023/03/01 07:48:45;;;;;;;27.75;18.02;;;-1.10;99.90;;;;;;474359;250;27538;-77
2023/03/01 07:50:46;;;;;;;28.50;18.42;;;-1.00;99.90;;;;;;474383;250;27519;-75
2023/03/01 07:52:47;;;;;;;25.50;16.70;;;-1.00;99.90;;;;;;466422;255;27665;-75
2023/03/01 07:54:48;;;;;;;31.40;19.30;;;-0.90;99.90;;;;;;474277;251;27534;-75
2023/03/01 07:56:50;;;;;;;27.35;17.90;;;-0.90;99.90;;;;;;474380;250;27557;-75
2023/03/01 07:58:51;;;;;;;28.73;18.87;;;-0.90;99.90;;;;;;474361;250;27988;-76
2023/03/01 08:00:52;;;;;;;29.40;18.27;;;-0.90;99.90;;;;;;466467;255;27628;-75
2023/03/01 08:02:53;;;;;;;29.05;17.58;;;-0.90;99.90;;;;;;474377;250;27588;-75
2023/03/01 08:04:55;;;;;;;30.62;18.00;;;-0.80;99.90;;;;;;474392;250;27506;-76
2023/03/01 08:06:56;;;;;;;30.00;17.50;;;-0.80;99.90;;;;;;474374;250;27563;-76
2023/03/01 08:08:58;;;;;;;31.37;19.52;;;-0.70;99.90;;;;;;466456;255;27642;-76
2023/03/01 08:10:58;;;;;;;31.75;17.55;;;-0.70;99.90;;;;;;474389;250;28751;-74
2023/03/01 08:13:00;;;;;;;28.87;18.83;;;-0.60;99.90;;;;;;474402;250;27488;-75
2023/03/01 08:15:01;;;;;;;28.62;19.40;;;-0.60;99.90;;;;;;466456;255;27548;-76
2023/03/01 08:17:02;;;;;;;29.63;18.75;;;-0.50;99.90;;;;;;474389;250;27481;-75
2023/03/01 08:19:03;;;;;;;30.98;18.45;;;-0.50;99.90;;;;;;474371;250;27562;-75
2023/03/01 08:21:05;;;;;;;29.50;18.83;;;-0.50;99.90;;;;;;474359;250;27582;-76
2023/03/01 08:23:06;;;;;;;26.50;17.92;;;-0.50;99.90;;;;;;466439;255;28060;-76
2023/03/01 08:25:07;;;;;;;30.30;18.60;;;-0.50;99.90;;;;;;474385;250;27650;-76
2023/03/01 08:27:09;;;;;;;27.83;18.52;;;-0.50;99.90;;;;;;474366;251;27480;-76
2023/03/01 08:29:10;;;;;;;28.95;16.87;;;-0.40;99.90;;;;;;474356;250;27539;-75
2023/03/01 08:31:11;;;;;;;32.55;18.00;;;-0.30;99.90;;;;;;466430;255;27913;-76
2023/03/01 08:33:12;;;;;;;25.12;17.80;;;-0.20;99.90;;;;;;474375;250;27591;-75
2023/03/01 08:35:14;;;;;;;30.37;17.83;;;-0.20;99.90;;;;;;474347;250;27975;-75
2023/03/01 08:37:15;;;;;;;27.60;18.20;;;-0.20;99.90;;;;;;474339;250;27971;-75
2023/03/01 08:39:16;;;;;;;31.55;17.73;;;-0.10;99.90;;;;;;466393;255;27657;-76
2023/03/01 08:41:17;;;;;;;27.27;17.48;;;-0.10;99.90;;;;;;474371;250;27534;-76
2023/03/01 08:43:19;;;;;;;31.35;18.52;;;-0.10;99.90;;;;;;474383;250;27488;-75
2023/03/01 08:45:20;;;;;;;28.70;18.05;;;0.00;99.90;;;;;;466409;255;27622;-76
2023/03/01 08:47:21;;;;;;;27.70;17.00;;;0.10;99.90;;;;;;474368;250;27491;-76
2023/03/01 08:49:23;;;;;;;29.60;18.23;;;0.10;99.90;;;;;;474350;250;27932;-75
2023/03/01 08:51:24;;;;;;;30.90;17.90;;;0.20;99.90;;;;;;484853;245;27906;-75
2023/03/01 08:53:25;;;;;;;27.30;18.27;;;0.30;99.90;;;;;;484849;245;27439;-75
2023/03/01 08:55:26;;;;;;;29.27;18.62;;;0.30;99.90;;;;;;474356;250;27630;-75
2023/03/01 08:57:27;;;;;;;28.42;16.95;;;0.30;99.90;;;;;;484824;245;27490;-75
2023/03/01 08:59:29;;;;;;;29.95;18.58;;;0.40;99.90;;;;;;474371;250;27519;-75
2023/03/01 09:01:30;;;;;;;30.30;18.55;;;0.40;99.90;;;;;;484880;245;27504;-75
2023/03/01 09:03:31;;;;;;;28.08;17.50;;;0.50;99.90;;;;;;484841;245;27832;-75
2023/03/01 09:05:32;;;;;;;26.65;17.67;;;0.50;99.90;;;;;;484830;245;27984;-75
2023/03/01 09:07:34;;;;;;;31.25;19.42;;;0.50;99.90;;;;;;474333;250;27622;-76
2023/03/01 09:09:35;;;;;;;27.75;18.05;;;0.60;99.90;;;;;;484824;245;27386;-75
2023/03/01 09:11:37;;;;;;;27.67;18.48;;;0.70;99.90;;;;;;474333;251;27527;-75
2023/03/01 09:13:38;;;;;;;32.58;17.20;;;0.80;99.90;;;;;;484795;245;27481;-76
2023/03/01 09:15:39;;;;;;;24.90;16.52;;;0.90;99.90;;;;;;474323;250;27505;-75
2023/03/01 09:17:40;;;;;;;26.98;17.30;;;0.90;99.90;;;;;;484847;245;27402;-76
2023/03/01 09:19:41;;;;;;;29.50;18.20;;;1.10;99.90;;;;;;474389;250;28092;-75
2023/03/01 09:21:51;;;;;;;27.08;17.60;;;1.00;99.90;;;;;;484851;245;27905;-77
2023/03/01 09:23:44;;;;;;;27.15;17.52;;;1.10;99.90;;;;;;473663;251;27488;-75
2023/03/01 09:25:45;;;;;;;26.20;16.62;;;1.10;99.90;;;;;;484847;245;27478;-75
2023/03/01 09:27:46;;;;;;;26.52;17.27;;;1.10;99.90;;;;;;484848;245;27380;-76
2023/03/01 09:29:47;;;;;;;25.85;16.20;;;1.20;99.90;;;;;;474369;250;27623;-76
2023/03/01 09:31:49;;;;;;;26.85;16.83;;;1.30;99.90;;;;;;484854;245;27418;-75
2023/03/01 09:33:50;;;;;;;26.70;17.62;;;1.40;99.90;;;;;;484849;245;27454;-75
2023/03/01 09:35:51;;;;;;;26.17;18.23;;;1.40;99.90;;;;;;474356;250;28000;-76
2023/03/01 09:37:53;;;;;;;30.60;16.95;;;1.30;99.90;;;;;;484823;245;29139;-76
2023/03/01 09:39:54;;;;;;;22.50;16.30;;;1.30;99.90;;;;;;474376;250;27598;-75
2023/03/01 09:41:55;;;;;;;26.75;17.95;;;1.40;99.90;;;;;;484832;245;27482;-76
2023/03/01 09:43:57;;;;;;;30.73;19.10;;;1.40;99.90;;;;;;484827;245;27362;-75
2023/03/01 09:45:58;;;;;;;27.62;17.20;;;1.30;99.90;;;;;;474338;249;27618;-75
2023/03/01 09:47:59;;;;;;;22.77;16.10;;;1.30;99.90;;;;;;484874;245;27423;-75
2023/03/01 09:50:00;;;;;;;24.60;16.10;;;1.40;99.90;;;;;;474399;250;28000;-76
2023/03/01 09:52:01;;;;;;;25.65;17.50;;;1.50;99.90;;;;;;484888;245;27968;-76
2023/03/01 09:54:03;;;;;;;27.33;18.48;;;1.80;99.90;;;;;;484851;245;27461;-76
2023/03/01 09:56:04;;;;;;;25.48;17.20;;;1.80;99.90;;;;;;484864;245;27430;-75
2023/03/01 09:58:05;;;;;;;26.92;17.48;;;1.80;99.90;;;;;;474365;250;27533;-77
2023/03/01 10:00:06;;;;;;;26.15;18.65;;;1.80;99.90;;;;;;484862;245;27368;-75
2023/03/01 10:02:08;;;;;;;24.50;17.20;;;1.70;99.90;;;;;;474356;250;27575;-75
2023/03/01 10:04:09;;;;;;;26.37;17.70;;;1.70;99.90;;;;;;484809;245;27362;-75
2023/03/01 10:06:10;;;;;;;25.58;17.20;;;1.80;99.90;;;;;;484853;245;27878;-77
2023/03/01 10:08:11;;;;;;;27.75;17.67;;;1.80;99.90;;;;;;484868;245;27897;-75
2023/03/01 10:10:13;;;;;;;28.25;17.98;;;1.90;99.90;;;;;;474367;250;27494;-75
2023/03/01 10:12:14;;;;;;;26.17;17.17;;;2.00;99.90;;;;;;484852;245;27407;-75
2023/03/01 10:14:15;;;;;;;27.20;16.85;;;2.20;99.90;;;;;;484824;245;27401;-77
2023/03/01 10:16:16;;;;;;;26.50;17.10;;;2.30;99.90;;;;;;484832;245;27531;-77
2023/03/01 10:18:18;;;;;;;28.95;18.12;;;2.40;99.90;;;;;;474359;250;27560;-76